createdAt,value
2017-12-29T00:00:19.001Z,-0.32
2017-12-29T00:02:47.361Z,-0.50
2017-12-29T00:05:15.673Z,-0.57
2017-12-29T00:07:43.989Z,-0.57
2017-12-29T00:10:12.288Z,-0.64
2017-12-29T00:12:40.602Z,-0.56
2017-12-29T00:15:08.889Z,-0.58
2017-12-29T00:17:37.204Z,-0.56
2017-12-29T00:20:06.267Z,-0.62
2017-12-29T00:22:34.576Z,-0.67
2017-12-29T00:25:02.881Z,-0.64
2017-12-29T00:27:31.148Z,-0.61
2017-12-29T00:29:59.401Z,-0.71
2017-12-29T00:32:27.671Z,-0.65
2017-12-29T00:34:55.972Z,-0.53
2017-12-29T00:37:24.286Z,-0.47
2017-12-29T00:39:53.303Z,-0.46
2017-12-29T00:42:21.594Z,-0.49
2017-12-29T00:44:49.863Z,-0.47
2017-12-29T00:47:18.145Z,-0.44
2017-12-29T00:49:46.424Z,-0.27
2017-12-29T00:52:14.696Z,-0.26
2017-12-29T00:54:43.711Z,-0.22
2017-12-29T00:57:11.981Z,-0.20
2017-12-29T00:59:41.013Z,-0.11
2017-12-29T01:02:09.284Z,-0.15
2017-12-29T01:04:38.284Z,-0.10
2017-12-29T01:07:07.338Z,-0.09
2017-12-29T01:09:35.603Z,-0.03
2017-12-29T01:12:03.883Z,0.07
2017-12-29T01:14:32.912Z,0.03
2017-12-29T01:17:01.168Z,0.06
2017-12-29T01:19:30.203Z,0.04
2017-12-29T01:21:58.476Z,0.08
2017-12-29T01:24:26.743Z,0.10
2017-12-29T01:26:55.762Z,0.09
2017-12-29T01:29:24.799Z,0.09
2017-12-29T01:31:53.082Z,0.03
2017-12-29T01:34:21.357Z,0.05
2017-12-29T01:36:50.369Z,0.19
2017-12-29T01:39:18.627Z,0.07
2017-12-29T01:41:47.643Z,0.00
2017-12-29T01:44:17.265Z,-0.10
2017-12-29T01:46:46.296Z,-0.24
2017-12-29T01:49:14.579Z,-0.20
2017-12-29T01:51:49.645Z,-0.12
2017-12-29T01:54:17.911Z,0.09
2017-12-29T01:56:46.167Z,0.25
2017-12-29T01:59:14.460Z,0.29
2017-12-29T02:01:42.710Z,0.29
2017-12-29T02:04:10.979Z,0.36
2017-12-29T02:06:39.253Z,0.46
2017-12-29T02:09:08.335Z,0.48
2017-12-29T02:11:37.794Z,0.45
2017-12-29T02:14:06.065Z,0.40
2017-12-29T02:16:35.077Z,0.50
2017-12-29T02:19:03.358Z,0.46
2017-12-29T02:21:32.375Z,0.42
2017-12-29T02:24:00.635Z,0.45
2017-12-29T02:26:29.663Z,0.49
2017-12-29T02:28:58.700Z,0.60
2017-12-29T02:31:26.965Z,0.51
2017-12-29T02:33:56.292Z,0.52
2017-12-29T02:36:24.558Z,0.50
2017-12-29T02:38:53.587Z,0.54
2017-12-29T02:41:21.843Z,0.61
2017-12-29T02:43:51.624Z,0.59
2017-12-29T02:46:19.876Z,0.57
2017-12-29T02:48:48.883Z,0.57
2017-12-29T02:51:17.148Z,0.59
2017-12-29T02:53:46.180Z,0.55
2017-12-29T02:56:14.451Z,0.59
2017-12-29T02:58:43.478Z,0.51
2017-12-29T03:01:11.751Z,0.53
2017-12-29T03:03:40.016Z,0.51
2017-12-29T03:06:08.281Z,0.39
2017-12-29T03:08:36.544Z,0.35
2017-12-29T03:11:04.808Z,0.31
2017-12-29T03:13:33.819Z,0.22
2017-12-29T03:16:02.852Z,0.06
2017-12-29T03:18:31.115Z,-0.04
2017-12-29T03:20:59.396Z,-0.14
2017-12-29T03:23:28.420Z,-0.24
2017-12-29T03:25:56.706Z,-0.30
2017-12-29T03:28:24.963Z,-0.42
2017-12-29T03:30:54.013Z,-0.52
2017-12-29T03:33:22.273Z,-0.42
2017-12-29T03:35:51.327Z,-0.51
2017-12-29T03:38:19.596Z,-0.51
2017-12-29T03:40:47.877Z,-0.58
2017-12-29T03:43:16.131Z,-0.66
2017-12-29T03:45:44.416Z,-0.63
2017-12-29T03:48:12.685Z,-0.55
2017-12-29T03:50:41.032Z,-0.54
2017-12-29T03:53:09.288Z,-0.58
2017-12-29T03:55:37.600Z,-0.72
2017-12-29T03:58:06.612Z,-0.78
2017-12-29T04:00:34.887Z,-0.63
2017-12-29T04:03:03.913Z,-0.63
2017-12-29T04:05:32.199Z,-0.60
2017-12-29T04:08:00.463Z,-0.70
2017-12-29T04:10:28.760Z,-0.68
2017-12-29T04:12:57.791Z,-0.77
2017-12-29T04:15:26.052Z,-0.72
2017-12-29T04:17:55.093Z,-0.74
2017-12-29T04:20:23.358Z,-0.77
2017-12-29T04:22:51.650Z,-0.68
2017-12-29T04:25:20.674Z,-0.75
2017-12-29T04:27:48.952Z,-0.83
2017-12-29T04:30:17.210Z,-0.92
2017-12-29T04:32:45.475Z,-0.80
2017-12-29T04:35:14.516Z,-0.78
2017-12-29T04:37:44.147Z,-0.60
2017-12-29T04:40:13.168Z,-0.65
2017-12-29T04:42:41.448Z,-0.69
2017-12-29T04:45:10.482Z,-0.58
2017-12-29T04:47:38.755Z,-0.62
2017-12-29T04:50:07.029Z,-0.63
2017-12-29T04:52:36.061Z,-0.61
2017-12-29T04:55:04.315Z,-0.60
2017-12-29T04:57:33.351Z,-0.73
2017-12-29T05:00:01.964Z,-0.67
2017-12-29T05:02:30.259Z,-0.53
2017-12-29T05:04:58.519Z,-0.46
2017-12-29T05:07:27.571Z,-0.56
2017-12-29T05:09:55.822Z,-0.63
2017-12-29T05:12:24.107Z,-0.60
2017-12-29T05:14:52.368Z,-0.53
2017-12-29T05:17:22.369Z,-0.50
2017-12-29T05:19:50.662Z,-0.56
2017-12-29T05:22:18.956Z,-0.57
2017-12-29T05:24:47.222Z,-0.49
2017-12-29T05:27:15.486Z,-0.58
2017-12-29T05:29:43.763Z,-0.57
2017-12-29T05:32:12.013Z,-0.57
2017-12-29T05:34:40.278Z,-0.54
2017-12-29T05:37:08.544Z,-0.54
2017-12-29T05:39:36.824Z,-0.59
2017-12-29T05:42:05.110Z,-0.59
2017-12-29T05:44:33.370Z,-0.59
2017-12-29T05:47:01.632Z,-0.53
2017-12-29T05:49:30.689Z,-0.64
2017-12-29T05:51:59.723Z,-0.61
2017-12-29T05:54:27.996Z,-0.72
2017-12-29T05:56:56.270Z,-0.66
2017-12-29T05:59:25.695Z,-0.69
2017-12-29T06:01:53.962Z,-0.64
2017-12-29T06:04:23.040Z,-0.73
2017-12-29T06:06:51.317Z,-0.66
2017-12-29T06:09:19.596Z,-0.66
2017-12-29T06:11:47.862Z,-0.66
2017-12-29T06:14:16.143Z,-0.82
2017-12-29T06:16:45.760Z,-0.76
2017-12-29T06:19:14.832Z,-0.77
2017-12-29T06:21:43.099Z,-0.86
2017-12-29T06:24:11.382Z,-0.77
2017-12-29T06:26:39.740Z,-0.66
2017-12-29T06:29:08.780Z,-0.71
2017-12-29T06:31:37.072Z,-0.68
2017-12-29T06:34:05.360Z,-0.57
2017-12-29T06:36:33.612Z,-0.65
2017-12-29T06:39:02.708Z,-0.65
2017-12-29T06:41:31.729Z,-0.61
2017-12-29T06:44:00.776Z,-0.57
2017-12-29T06:46:29.823Z,-0.60
2017-12-29T06:48:58.104Z,-0.68
2017-12-29T06:51:26.364Z,-0.61
2017-12-29T06:53:55.402Z,-0.67
2017-12-29T06:56:23.666Z,-0.63
2017-12-29T06:58:52.017Z,-0.68
2017-12-29T07:01:20.306Z,-0.70
2017-12-29T07:03:48.581Z,-0.79
2017-12-29T07:06:17.983Z,-0.71
2017-12-29T07:08:47.032Z,-0.57
2017-12-29T07:11:15.296Z,-0.63
2017-12-29T07:13:44.349Z,-0.68
2017-12-29T07:16:12.636Z,-0.73
2017-12-29T07:18:41.686Z,-0.82
2017-12-29T07:21:09.999Z,-0.73
2017-12-29T07:23:38.303Z,-0.66
2017-12-29T07:26:06.568Z,-0.69
2017-12-29T07:28:35.591Z,-0.67
2017-12-29T07:31:03.867Z,-0.65
2017-12-29T07:33:33.008Z,-0.68
2017-12-29T07:36:02.001Z,-0.71
2017-12-29T07:38:30.259Z,-0.85
2017-12-29T07:40:59.304Z,-0.85
2017-12-29T07:43:27.549Z,-0.83
2017-12-29T07:45:56.582Z,-0.78
2017-12-29T07:48:24.847Z,-0.80
2017-12-29T07:50:53.922Z,-0.75
2017-12-29T07:53:22.188Z,-0.68
2017-12-29T07:55:50.494Z,-0.47
2017-12-29T07:58:18.777Z,-0.48
2017-12-29T08:00:47.039Z,-0.47
2017-12-29T08:03:15.326Z,-0.33
2017-12-29T08:05:43.855Z,-0.26
2017-12-29T08:08:12.116Z,-0.17
2017-12-29T08:10:40.398Z,-0.22
2017-12-29T08:13:08.659Z,-0.19
2017-12-29T08:15:36.935Z,-0.14
2017-12-29T08:18:05.200Z,-0.01
2017-12-29T08:20:33.507Z,0.00
2017-12-29T08:23:01.759Z,0.09
2017-12-29T08:25:30.044Z,0.17
2017-12-29T08:27:58.292Z,0.28
2017-12-29T08:30:27.359Z,0.38
2017-12-29T08:32:56.448Z,0.51
2017-12-29T08:35:24.727Z,0.62
2017-12-29T08:37:52.983Z,0.64
2017-12-29T08:40:21.260Z,0.66
2017-12-29T08:42:49.503Z,0.69
2017-12-29T08:45:17.772Z,0.67
2017-12-29T08:47:46.032Z,0.66
2017-12-29T08:50:14.307Z,0.71
2017-12-29T08:52:42.578Z,0.69
2017-12-29T08:55:10.841Z,0.72
2017-12-29T08:57:39.116Z,0.76
2017-12-29T09:00:08.147Z,0.78
2017-12-29T09:02:36.456Z,0.88
2017-12-29T09:05:04.716Z,0.87
2017-12-29T09:07:33.015Z,0.90
2017-12-29T09:10:01.259Z,0.97
2017-12-29T09:12:29.581Z,1.02
2017-12-29T09:14:57.825Z,1.03
2017-12-29T09:17:26.091Z,1.17
2017-12-29T09:19:54.380Z,1.06
2017-12-29T09:22:22.647Z,1.15
2017-12-29T09:24:50.948Z,1.21
2017-12-29T09:27:19.216Z,1.13
2017-12-29T09:29:47.507Z,1.22
2017-12-29T09:32:15.894Z,1.26
2017-12-29T09:34:44.148Z,1.27
2017-12-29T09:37:12.438Z,1.23
2017-12-29T09:39:40.684Z,1.28
2017-12-29T09:42:08.956Z,1.21
2017-12-29T09:44:37.272Z,1.45
2017-12-29T09:47:05.539Z,1.42
2017-12-29T09:49:33.798Z,1.45
2017-12-29T09:52:02.837Z,1.44
2017-12-29T09:54:31.088Z,1.61
2017-12-29T09:56:59.382Z,1.58
2017-12-29T09:59:28.395Z,1.88
2017-12-29T10:01:57.436Z,1.77
2017-12-29T10:04:25.694Z,1.72
2017-12-29T10:06:55.319Z,1.78
2017-12-29T10:09:24.487Z,1.90
2017-12-29T10:11:53.403Z,1.88
2017-12-29T10:14:21.763Z,1.91
2017-12-29T10:16:50.373Z,2.00
2017-12-29T10:19:18.992Z,1.97
2017-12-29T10:21:47.614Z,1.96
2017-12-29T10:24:17.043Z,2.16
2017-12-29T10:26:45.558Z,2.04
2017-12-29T10:29:14.178Z,2.17
2017-12-29T10:31:42.756Z,2.19
2017-12-29T10:34:11.312Z,2.24
2017-12-29T10:36:40.945Z,2.17
2017-12-29T10:39:10.260Z,2.22
2017-12-29T10:41:39.499Z,2.27
2017-12-29T10:44:08.032Z,2.44
2017-12-29T10:46:36.366Z,2.46
2017-12-29T10:49:05.015Z,2.53
2017-12-29T10:51:33.430Z,2.57
2017-12-29T10:54:02.789Z,2.54
2017-12-29T10:56:31.231Z,2.54
2017-12-29T10:58:59.806Z,2.52
2017-12-29T11:01:28.975Z,2.56
2017-12-29T11:03:57.553Z,2.61
2017-12-29T11:06:26.247Z,2.69
2017-12-29T11:08:55.608Z,2.68
2017-12-29T11:11:23.902Z,2.66
2017-12-29T11:13:52.591Z,2.67
2017-12-29T11:16:20.884Z,2.64
2017-12-29T11:18:49.500Z,2.86
2017-12-29T11:21:17.855Z,2.83
2017-12-29T11:23:46.718Z,2.85
2017-12-29T11:26:16.638Z,2.99
2017-12-29T11:28:45.397Z,3.02
2017-12-29T11:31:13.791Z,3.03
2017-12-29T11:33:42.148Z,3.17
2017-12-29T11:36:11.567Z,3.21
2017-12-29T11:38:41.145Z,3.19
2017-12-29T11:41:10.227Z,3.14
2017-12-29T11:43:39.224Z,2.97
2017-12-29T11:46:07.578Z,2.97
2017-12-29T11:48:36.944Z,2.97
2017-12-29T11:51:05.337Z,3.10
2017-12-29T11:53:33.826Z,3.08
2017-12-29T11:56:02.405Z,3.12
2017-12-29T11:58:31.076Z,3.17
2017-12-29T12:01:00.250Z,3.03
2017-12-29T12:03:28.565Z,2.95
2017-12-29T12:05:57.884Z,2.99
2017-12-29T12:08:27.115Z,3.07
2017-12-29T12:10:55.710Z,3.23
2017-12-29T12:13:24.162Z,4.07
2017-12-29T12:15:52.730Z,3.39
2017-12-29T12:18:21.376Z,3.36
2017-12-29T12:20:50.748Z,3.34
2017-12-29T12:23:19.342Z,3.30
2017-12-29T12:25:48.107Z,3.34
2017-12-29T12:28:17.336Z,3.49
2017-12-29T12:30:46.052Z,3.46
2017-12-29T12:33:14.497Z,3.45
2017-12-29T12:35:43.924Z,3.52
2017-12-29T12:38:13.846Z,3.56
2017-12-29T12:40:42.786Z,3.75
2017-12-29T12:43:11.330Z,3.64
2017-12-29T12:45:40.365Z,3.81
2017-12-29T12:48:08.627Z,3.73
2017-12-29T12:50:36.899Z,3.72
2017-12-29T12:53:05.185Z,3.78
2017-12-29T12:55:33.459Z,3.80
2017-12-29T12:58:02.467Z,3.61
2017-12-29T13:00:30.736Z,3.66
2017-12-29T13:02:58.989Z,3.49
2017-12-29T13:05:28.020Z,3.48
2017-12-29T13:07:56.279Z,3.42
2017-12-29T13:10:25.306Z,3.48
2017-12-29T13:12:53.561Z,3.59
2017-12-29T13:15:22.607Z,3.66
2017-12-29T13:17:50.864Z,3.68
2017-12-29T13:20:19.904Z,3.63
2017-12-29T13:22:48.190Z,3.57
2017-12-29T13:25:16.458Z,3.47
2017-12-29T13:27:45.477Z,3.48
2017-12-29T13:30:14.521Z,3.46
2017-12-29T13:32:42.879Z,3.46
2017-12-29T13:35:11.135Z,3.48
2017-12-29T13:37:39.428Z,3.43
2017-12-29T13:40:07.677Z,3.38
2017-12-29T13:42:35.964Z,3.31
2017-12-29T13:45:04.212Z,3.31
2017-12-29T13:47:32.492Z,3.26
2017-12-29T13:50:00.757Z,3.24
2017-12-29T13:52:29.040Z,3.18
2017-12-29T13:54:57.309Z,3.17
2017-12-29T13:57:25.596Z,3.15
2017-12-29T13:59:53.871Z,3.09
2017-12-29T14:02:22.169Z,3.10
2017-12-29T14:04:50.421Z,3.05
2017-12-29T14:07:18.683Z,3.06
2017-12-29T14:09:46.932Z,3.08
2017-12-29T14:12:15.204Z,3.06
2017-12-29T14:14:43.508Z,3.06
2017-12-29T14:17:12.553Z,3.05
2017-12-29T14:19:41.644Z,3.03
2017-12-29T14:22:10.626Z,2.96
2017-12-29T14:24:38.914Z,2.92
2017-12-29T14:27:07.184Z,2.99
2017-12-29T14:29:35.431Z,2.92
2017-12-29T14:32:03.803Z,2.91
2017-12-29T14:34:32.040Z,2.98
2017-12-29T14:37:01.120Z,2.94
2017-12-29T14:39:29.440Z,2.93
2017-12-29T14:41:58.477Z,2.82
2017-12-29T14:44:26.721Z,2.85
2017-12-29T14:46:55.040Z,2.88
2017-12-29T14:49:24.102Z,2.81
2017-12-29T14:51:52.383Z,2.78
2017-12-29T14:54:20.639Z,2.82
2017-12-29T14:56:48.970Z,2.81
2017-12-29T14:59:17.261Z,2.67
2017-12-29T15:01:46.343Z,2.74
2017-12-29T15:04:14.639Z,2.79
2017-12-29T15:06:42.948Z,2.74
2017-12-29T15:09:11.234Z,2.76
2017-12-29T15:11:39.524Z,2.73
2017-12-29T15:14:07.832Z,2.64
2017-12-29T15:16:36.101Z,2.72
2017-12-29T15:19:04.842Z,2.68
2017-12-29T15:21:34.250Z,2.76
2017-12-29T15:24:03.546Z,2.77
2017-12-29T15:26:31.866Z,2.65
2017-12-29T15:29:00.946Z,2.72
2017-12-29T15:31:29.770Z,2.65
2017-12-29T15:33:59.458Z,2.63
2017-12-29T15:36:28.905Z,2.68
2017-12-29T15:38:58.832Z,2.67
2017-12-29T15:41:28.696Z,2.58
2017-12-29T15:43:57.924Z,2.55
2017-12-29T15:46:26.455Z,2.58
2017-12-29T15:48:54.723Z,2.59
2017-12-29T15:51:28.472Z,2.58
2017-12-29T15:53:57.532Z,2.52
2017-12-29T15:56:25.989Z,2.59
2017-12-29T15:58:54.383Z,2.53
2017-12-29T16:01:29.350Z,2.55
2017-12-29T16:03:57.774Z,2.61
2017-12-29T16:06:26.557Z,2.52
2017-12-29T16:08:55.066Z,2.56
2017-12-29T16:11:23.431Z,2.54
2017-12-29T16:13:51.746Z,2.63
2017-12-29T16:16:20.230Z,2.56
2017-12-29T16:18:48.937Z,2.57
2017-12-29T16:21:17.396Z,2.64
2017-12-29T16:23:46.038Z,2.68
2017-12-29T16:26:14.553Z,2.72
2017-12-29T16:28:42.971Z,2.59
2017-12-29T16:31:11.513Z,2.58
2017-12-29T16:33:39.928Z,2.71
2017-12-29T16:36:08.346Z,2.60
2017-12-29T16:38:36.877Z,2.58
2017-12-29T16:41:05.616Z,2.56
2017-12-29T16:43:34.465Z,2.54
2017-12-29T16:46:02.805Z,2.53
2017-12-29T16:48:31.139Z,2.49
2017-12-29T16:50:59.709Z,2.32
2017-12-29T16:53:28.732Z,2.24
2017-12-29T16:55:57.835Z,2.20
2017-12-29T16:58:26.096Z,2.31
2017-12-29T17:00:55.135Z,2.22
2017-12-29T17:03:23.397Z,2.41
2017-12-29T17:05:52.484Z,2.40
2017-12-29T17:08:20.741Z,2.37
2017-12-29T17:10:49.015Z,2.40
2017-12-29T17:13:17.315Z,2.39
2017-12-29T17:15:45.600Z,2.20
2017-12-29T17:18:13.910Z,1.99
2017-12-29T17:20:42.918Z,1.97
2017-12-29T17:23:11.168Z,1.93
2017-12-29T17:25:39.472Z,1.72
2017-12-29T17:28:07.727Z,1.73
2017-12-29T17:30:36.798Z,1.70
2017-12-29T17:33:05.858Z,1.66
2017-12-29T17:35:34.929Z,1.67
2017-12-29T17:38:03.213Z,1.58
2017-12-29T17:40:31.518Z,1.49
2017-12-29T17:42:59.783Z,1.40
2017-12-29T17:45:28.050Z,1.50
2017-12-29T17:47:56.358Z,1.47
2017-12-29T17:50:25.455Z,1.40
2017-12-29T17:52:53.741Z,1.42
2017-12-29T17:55:22.009Z,1.32
2017-12-29T17:57:50.297Z,1.24
2017-12-29T18:00:18.604Z,1.22
2017-12-29T18:02:46.912Z,1.19
2017-12-29T18:05:15.218Z,1.24
2017-12-29T18:07:43.515Z,1.21
2017-12-29T18:10:11.873Z,1.28
2017-12-29T18:12:40.123Z,1.30
2017-12-29T18:15:09.136Z,1.36
2017-12-29T18:17:37.408Z,1.38
2017-12-29T18:20:06.429Z,1.40
2017-12-29T18:22:34.760Z,1.39
2017-12-29T18:25:03.019Z,1.46
2017-12-29T18:27:31.334Z,1.50
2017-12-29T18:29:59.616Z,1.41
2017-12-29T18:32:27.884Z,1.55
2017-12-29T18:34:56.201Z,1.51
2017-12-29T18:37:24.511Z,1.52
2017-12-29T18:39:52.764Z,1.47
2017-12-29T18:42:21.082Z,1.44
2017-12-29T18:44:49.371Z,1.48
2017-12-29T18:47:17.695Z,1.28
2017-12-29T18:49:45.986Z,1.21
2017-12-29T18:52:14.327Z,1.12
2017-12-29T18:54:42.613Z,1.10
2017-12-29T18:57:10.933Z,1.12
2017-12-29T18:59:39.179Z,1.08
2017-12-29T19:02:07.471Z,1.21
2017-12-29T19:04:35.786Z,1.21
2017-12-29T19:07:04.120Z,1.16
2017-12-29T19:09:33.180Z,1.16
2017-12-29T19:12:01.509Z,1.18
2017-12-29T19:14:29.766Z,1.17
2017-12-29T19:16:58.113Z,1.16
2017-12-29T19:19:26.375Z,1.19
2017-12-29T19:21:55.413Z,1.22
2017-12-29T19:24:23.714Z,1.24
2017-12-29T19:26:52.029Z,1.26
2017-12-29T19:29:20.285Z,1.28
2017-12-29T19:31:48.628Z,1.27
2017-12-29T19:34:16.918Z,1.28
2017-12-29T19:36:45.236Z,1.30
2017-12-29T19:39:13.558Z,1.39
2017-12-29T19:41:41.853Z,1.39
2017-12-29T19:44:10.164Z,1.53
2017-12-29T19:46:38.470Z,1.53
2017-12-29T19:49:06.789Z,1.63
2017-12-29T19:51:35.839Z,1.78
2017-12-29T19:54:04.150Z,1.81
2017-12-29T19:56:32.441Z,1.75
2017-12-29T19:59:00.805Z,1.69
2017-12-29T20:01:29.100Z,1.72
2017-12-29T20:03:57.415Z,1.92
2017-12-29T20:06:26.486Z,1.85
2017-12-29T20:08:55.561Z,1.93
2017-12-29T20:11:24.627Z,1.91
2017-12-29T20:13:52.926Z,1.89
2017-12-29T20:16:21.225Z,1.94
2017-12-29T20:18:49.552Z,1.99
2017-12-29T20:21:17.844Z,2.02
2017-12-29T20:23:46.161Z,2.01
2017-12-29T20:26:14.463Z,1.96
2017-12-29T20:28:42.776Z,2.04
2017-12-29T20:31:11.068Z,2.03
2017-12-29T20:33:39.401Z,2.21
2017-12-29T20:36:07.706Z,2.19
2017-12-29T20:38:36.074Z,2.31
2017-12-29T20:41:05.114Z,2.35
2017-12-29T20:43:33.433Z,2.31
2017-12-29T20:46:01.778Z,2.35
2017-12-29T20:48:30.897Z,2.31
2017-12-29T20:50:59.218Z,2.27
2017-12-29T20:53:27.551Z,2.29
2017-12-29T20:55:55.850Z,2.31
2017-12-29T20:58:24.175Z,2.30
2017-12-29T21:00:52.481Z,2.32
2017-12-29T21:03:22.287Z,2.34
2017-12-29T21:05:50.586Z,2.43
2017-12-29T21:08:18.914Z,2.40
2017-12-29T21:10:48.011Z,2.50
2017-12-29T21:13:17.098Z,2.56
2017-12-29T21:15:45.427Z,2.63
2017-12-29T21:18:13.723Z,2.73
2017-12-29T21:20:42.042Z,2.70
2017-12-29T21:23:10.339Z,2.71
2017-12-29T21:25:38.650Z,2.90
2017-12-29T21:28:06.955Z,2.92
2017-12-29T21:30:35.267Z,2.99
2017-12-29T21:33:04.931Z,3.07
2017-12-29T21:35:33.262Z,3.12
2017-12-29T21:38:02.342Z,3.23
2017-12-29T21:40:30.680Z,3.27
2017-12-29T21:42:59.760Z,3.35
2017-12-29T21:45:28.080Z,3.35
2017-12-29T21:47:56.386Z,3.44
2017-12-29T21:50:24.722Z,3.53
2017-12-29T21:52:53.037Z,3.50
2017-12-29T21:55:22.126Z,3.69
2017-12-29T21:57:50.430Z,3.65
2017-12-29T22:00:19.513Z,3.72
2017-12-29T22:02:47.805Z,3.80
2017-12-29T22:05:16.138Z,3.79
2017-12-29T22:07:44.421Z,3.93
2017-12-29T22:10:13.499Z,3.92
2017-12-29T22:12:41.787Z,3.95
2017-12-29T22:15:10.212Z,3.91
2017-12-29T22:17:38.519Z,3.81
2017-12-29T22:20:06.899Z,3.86
2017-12-29T22:22:35.207Z,3.73
2017-12-29T22:25:03.528Z,3.79
2017-12-29T22:27:31.833Z,3.81
2017-12-29T22:30:00.162Z,3.73
2017-12-29T22:32:28.456Z,3.78
2017-12-29T22:34:56.758Z,3.70
2017-12-29T22:37:25.090Z,3.84
2017-12-29T22:39:53.406Z,3.85
2017-12-29T22:42:22.479Z,3.89
2017-12-29T22:44:50.788Z,3.86
2017-12-29T22:47:19.103Z,3.83
2017-12-29T22:49:47.404Z,3.79
2017-12-29T22:52:15.737Z,3.73
2017-12-29T22:54:44.137Z,3.86
2017-12-29T22:57:12.765Z,3.74
2017-12-29T22:59:42.126Z,3.81
2017-12-29T23:02:10.758Z,3.74
2017-12-29T23:04:39.230Z,3.78
2017-12-29T23:07:07.929Z,3.77
2017-12-29T23:09:36.315Z,3.75
2017-12-29T23:12:05.269Z,3.76
2017-12-29T23:14:34.331Z,3.85
2017-12-29T23:17:02.666Z,3.83
2017-12-29T23:19:31.730Z,3.92
2017-12-29T23:22:00.055Z,3.95
2017-12-29T23:24:28.364Z,4.01
2017-12-29T23:26:56.679Z,3.97
2017-12-29T23:29:24.980Z,4.01
2017-12-29T23:31:54.059Z,4.09
2017-12-29T23:34:22.375Z,4.05
2017-12-29T23:36:50.678Z,4.07
2017-12-29T23:39:18.988Z,4.08
2017-12-29T23:41:47.302Z,4.23
2017-12-29T23:44:16.370Z,4.14
2017-12-29T23:46:44.691Z,4.20
2017-12-29T23:49:12.987Z,4.19
2017-12-29T23:51:42.098Z,4.23
2017-12-29T23:54:10.385Z,4.18
2017-12-29T23:56:39.446Z,4.16
2017-12-29T23:59:07.695Z,4.15
